createdAt,value
2019-01-23T00:01:06.530Z,63.30
2019-01-23T00:03:36.317Z,64.00
2019-01-23T00:06:05.795Z,71.63
2019-01-23T00:08:35.174Z,70.87
2019-01-23T00:11:04.684Z,64.50
2019-01-23T00:13:34.063Z,67.27
2019-01-23T00:16:03.485Z,63.47
2019-01-23T00:18:32.867Z,65.83
2019-01-23T00:21:02.292Z,61.23
2019-01-23T00:23:31.675Z,65.60
2019-01-23T00:26:01.127Z,64.53
2019-01-23T00:28:30.523Z,70.63
2019-01-23T00:30:59.903Z,73.63
2019-01-23T00:33:29.305Z,71.07
2019-01-23T00:35:58.703Z,62.80
2019-01-23T00:38:28.115Z,76.43
2019-01-23T00:40:57.428Z,71.23
2019-01-23T00:43:26.861Z,65.33
2019-01-23T00:45:56.267Z,59.83
2019-01-23T00:48:25.647Z,70.27
2019-01-23T00:50:55.066Z,63.60
2019-01-23T00:53:24.455Z,62.27
2019-01-23T00:55:53.799Z,60.03
2019-01-23T00:58:23.202Z,63.37
2019-01-23T01:00:52.538Z,58.30
2019-01-23T01:03:21.943Z,63.73
2019-01-23T01:05:51.396Z,57.77
2019-01-23T01:08:20.773Z,58.47
2019-01-23T01:10:50.180Z,55.13
2019-01-23T01:13:19.577Z,56.60
2019-01-23T01:15:49.009Z,57.03
2019-01-23T01:18:18.415Z,60.57
2019-01-23T01:20:47.818Z,68.93
2019-01-23T01:23:17.235Z,65.07
2019-01-23T01:25:46.630Z,60.37
2019-01-23T01:28:16.061Z,69.63
2019-01-23T01:30:45.478Z,60.37
2019-01-23T01:33:14.804Z,64.37
2019-01-23T01:35:44.385Z,66.70
2019-01-23T01:38:13.809Z,65.70
2019-01-23T01:40:43.192Z,71.90
2019-01-23T01:43:12.587Z,70.80
2019-01-23T01:45:41.987Z,71.40
2019-01-23T01:48:11.394Z,60.23
2019-01-23T01:50:40.814Z,70.27
2019-01-23T01:53:10.199Z,63.67
2019-01-23T01:55:39.526Z,68.97
2019-01-23T01:58:10.234Z,56.27
2019-01-23T02:00:39.771Z,60.90
2019-01-23T02:03:09.192Z,52.60
2019-01-23T02:05:38.739Z,58.87
2019-01-23T02:08:08.151Z,70.10
2019-01-23T02:10:37.541Z,57.27
2019-01-23T02:13:06.964Z,60.60
2019-01-23T02:15:36.371Z,57.37
2019-01-23T02:18:05.771Z,64.60
2019-01-23T02:20:35.182Z,69.50
2019-01-23T02:23:04.586Z,59.60
2019-01-23T02:25:33.976Z,60.50
2019-01-23T02:28:03.499Z,61.83
2019-01-23T02:30:32.900Z,61.97
2019-01-23T02:33:02.351Z,57.17
2019-01-23T02:35:31.747Z,57.93
2019-01-23T02:38:01.131Z,64.40
2019-01-23T02:40:30.485Z,61.63
2019-01-23T02:42:59.874Z,64.53
2019-01-23T02:45:29.362Z,54.93
2019-01-23T02:47:58.768Z,59.27
2019-01-23T02:50:28.203Z,56.30
2019-01-23T02:52:57.609Z,51.07
2019-01-23T02:55:27.064Z,57.00
2019-01-23T02:57:56.453Z,50.90
2019-01-23T03:00:25.832Z,61.47
2019-01-23T03:02:55.291Z,60.50
2019-01-23T03:05:25.856Z,61.73
2019-01-23T03:07:55.316Z,56.57
2019-01-23T03:10:24.700Z,50.43
2019-01-23T03:12:54.153Z,62.20
2019-01-23T03:15:23.642Z,54.33
2019-01-23T03:17:53.050Z,58.53
2019-01-23T03:20:22.454Z,56.47
2019-01-23T03:22:51.840Z,60.43
2019-01-23T03:25:21.251Z,57.10
2019-01-23T03:27:50.655Z,59.27
2019-01-23T03:30:22.762Z,56.00
2019-01-23T03:32:52.126Z,59.00
2019-01-23T03:35:21.748Z,57.67
2019-01-23T03:37:51.162Z,59.13
2019-01-23T03:40:22.061Z,57.13
2019-01-23T03:42:51.644Z,66.77
2019-01-23T03:45:21.044Z,61.20
2019-01-23T03:47:50.421Z,62.50
2019-01-23T03:50:20.721Z,61.77
2019-01-23T03:52:50.090Z,61.43
2019-01-23T03:55:19.803Z,59.30
2019-01-23T03:57:49.287Z,60.30
2019-01-23T04:00:20.519Z,62.80
2019-01-23T04:02:50.714Z,61.40
2019-01-23T04:05:20.339Z,67.53
2019-01-23T04:07:49.753Z,60.30
2019-01-23T04:10:19.274Z,58.50
2019-01-23T04:12:48.690Z,62.00
2019-01-23T04:15:18.223Z,61.73
2019-01-23T04:17:47.737Z,60.83
2019-01-23T04:20:21.789Z,62.17
2019-01-23T04:22:51.292Z,66.37
2019-01-23T04:25:20.680Z,55.67
2019-01-23T04:27:50.070Z,63.80
2019-01-23T04:30:21.466Z,64.20
2019-01-23T04:32:50.960Z,54.50
2019-01-23T04:35:20.472Z,61.23
2019-01-23T04:37:49.809Z,64.63
2019-01-23T04:40:19.316Z,67.10
2019-01-23T04:42:48.695Z,59.43
2019-01-23T04:45:18.450Z,57.17
2019-01-23T04:47:47.786Z,61.13
2019-01-23T04:50:17.575Z,59.97
2019-01-23T04:52:55.850Z,57.17
2019-01-23T04:55:25.231Z,59.93
2019-01-23T04:57:54.623Z,57.53
2019-01-23T05:00:25.564Z,64.10
2019-01-23T05:02:54.934Z,66.07
2019-01-23T05:05:24.365Z,64.90
2019-01-23T05:07:53.819Z,63.43
2019-01-23T05:10:23.371Z,59.93
2019-01-23T05:12:52.784Z,68.63
2019-01-23T05:15:22.167Z,58.07
2019-01-23T05:17:51.588Z,59.13
2019-01-23T05:20:20.994Z,67.77
2019-01-23T05:22:50.403Z,60.30
2019-01-23T05:25:19.801Z,69.37
2019-01-23T05:27:49.247Z,64.90
2019-01-23T05:30:21.014Z,71.33
2019-01-23T05:32:50.436Z,61.73
2019-01-23T05:35:19.964Z,67.77
2019-01-23T05:37:49.339Z,71.50
2019-01-23T05:40:18.984Z,74.17
2019-01-23T05:42:48.386Z,64.73
2019-01-23T05:45:18.125Z,67.63
2019-01-23T05:47:47.515Z,90.33
2019-01-23T05:50:17.494Z,67.77
2019-01-23T05:52:48.223Z,66.70
2019-01-23T05:55:17.728Z,57.73
2019-01-23T05:57:47.227Z,61.40
2019-01-23T06:00:18.564Z,64.20
2019-01-23T06:02:47.975Z,94.17
2019-01-23T06:05:17.986Z,68.97
2019-01-23T06:07:47.411Z,72.67
2019-01-23T06:10:16.915Z,59.77
2019-01-23T06:12:46.315Z,64.03
2019-01-23T06:15:16.043Z,63.97
2019-01-23T06:17:45.433Z,65.07
2019-01-23T06:20:16.793Z,57.80
2019-01-23T06:22:46.217Z,89.37
2019-01-23T06:25:15.821Z,64.57
2019-01-23T06:27:45.240Z,71.77
2019-01-23T06:30:25.356Z,69.07
2019-01-23T06:32:54.791Z,64.10
2019-01-23T06:35:24.184Z,81.37
2019-01-23T06:37:53.628Z,72.57
2019-01-23T06:40:23.052Z,80.10
2019-01-23T06:42:52.461Z,64.13
2019-01-23T06:45:21.858Z,64.67
2019-01-23T06:47:51.341Z,69.60
2019-01-23T06:50:21.927Z,59.87
2019-01-23T06:52:51.329Z,67.20
2019-01-23T06:55:20.868Z,65.43
2019-01-23T06:57:50.259Z,57.40
2019-01-23T07:00:24.708Z,66.07
2019-01-23T07:02:54.243Z,68.97
2019-01-23T07:05:24.260Z,59.93
2019-01-23T07:07:53.739Z,58.60
2019-01-23T07:10:25.221Z,58.93
2019-01-23T07:12:54.730Z,66.43
2019-01-23T07:15:24.149Z,62.83
2019-01-23T07:17:53.583Z,84.17
2019-01-23T07:20:24.738Z,84.23
2019-01-23T07:22:54.282Z,89.10
2019-01-23T07:25:23.886Z,70.57
2019-01-23T07:27:53.288Z,57.70
2019-01-23T07:30:25.150Z,54.70
2019-01-23T07:32:54.536Z,104.27
2019-01-23T07:35:23.934Z,83.83
2019-01-23T07:37:53.319Z,53.37
2019-01-23T07:40:22.748Z,60.17
2019-01-23T07:42:52.126Z,58.30
2019-01-23T07:45:21.655Z,76.93
2019-01-23T07:47:51.044Z,64.13
2019-01-23T07:50:20.562Z,69.80
2019-01-23T07:52:49.955Z,58.50
2019-01-23T07:55:19.419Z,59.47
2019-01-23T07:57:48.791Z,62.23
2019-01-23T08:00:19.712Z,58.50
2019-01-23T08:02:49.936Z,57.37
2019-01-23T08:05:21.610Z,59.70
2019-01-23T08:07:51.215Z,55.13
2019-01-23T08:10:20.986Z,53.27
2019-01-23T08:12:50.414Z,59.50
2019-01-23T08:15:24.972Z,64.07
2019-01-23T08:17:54.383Z,60.37
2019-01-23T08:20:24.278Z,53.37
2019-01-23T08:22:53.709Z,60.10
2019-01-23T08:25:23.088Z,55.03
2019-01-23T08:27:52.495Z,60.20
2019-01-23T08:30:22.531Z,47.73
2019-01-23T08:32:52.073Z,60.17
2019-01-23T08:35:23.143Z,63.10
2019-01-23T08:37:52.514Z,53.57
2019-01-23T08:40:22.030Z,53.13
2019-01-23T08:42:51.531Z,54.87
2019-01-23T08:45:20.959Z,55.90
2019-01-23T08:47:50.347Z,61.33
2019-01-23T08:50:28.864Z,63.33
2019-01-23T08:52:58.251Z,56.47
2019-01-23T08:55:27.752Z,64.33
2019-01-23T08:57:57.239Z,62.53
2019-01-23T09:00:26.607Z,53.53
2019-01-23T09:02:56.010Z,53.30
2019-01-23T09:05:25.395Z,63.57
2019-01-23T09:07:54.858Z,56.90
2019-01-23T09:10:24.397Z,57.90
2019-01-23T09:12:53.920Z,54.27
2019-01-23T09:15:23.296Z,48.20
2019-01-23T09:17:52.683Z,58.47
2019-01-23T09:20:22.123Z,73.87
2019-01-23T09:22:51.515Z,87.70
2019-01-23T09:25:22.512Z,84.90
2019-01-23T09:27:51.927Z,90.03
2019-01-23T09:30:27.394Z,86.30
2019-01-23T09:33:24.582Z,94.53
2019-01-23T09:36:55.760Z,79.87
2019-01-23T09:40:08.995Z,81.40
2019-01-23T09:42:59.546Z,74.23
2019-01-23T09:46:04.140Z,82.97
2019-01-23T09:49:13.896Z,90.43
2019-01-23T09:52:25.369Z,92.77
2019-01-23T09:54:56.545Z,83.47
2019-01-23T09:57:27.461Z,90.13
2019-01-23T10:00:01.785Z,86.73
2019-01-23T10:02:33.049Z,80.40
2019-01-23T10:05:02.562Z,82.57
2019-01-23T10:07:31.976Z,89.07
2019-01-23T10:10:01.415Z,83.83
2019-01-23T10:12:30.851Z,74.80
2019-01-23T10:15:00.484Z,84.73
2019-01-23T10:17:29.867Z,86.03
2019-01-23T10:19:59.251Z,89.87
2019-01-23T10:22:28.663Z,90.63
2019-01-23T10:24:58.055Z,86.10
2019-01-23T10:27:27.476Z,94.17
2019-01-23T10:29:56.861Z,86.13
2019-01-23T10:32:26.236Z,83.80
2019-01-23T10:34:56.741Z,88.23
2019-01-23T10:37:26.155Z,85.27
2019-01-23T10:39:55.568Z,90.97
2019-01-23T10:42:24.974Z,87.07
2019-01-23T10:44:54.429Z,85.37
2019-01-23T10:47:23.807Z,86.33
2019-01-23T10:49:53.192Z,76.27
2019-01-23T10:52:22.603Z,89.50
2019-01-23T10:54:51.976Z,87.40
2019-01-23T10:57:21.396Z,84.77
2019-01-23T10:59:50.804Z,84.40
2019-01-23T11:02:20.301Z,84.63
2019-01-23T11:04:49.705Z,90.80
2019-01-23T11:07:19.116Z,78.43
2019-01-23T11:09:48.804Z,81.87
2019-01-23T11:12:18.253Z,81.00
2019-01-23T11:14:47.659Z,85.30
2019-01-23T11:17:17.039Z,82.17
2019-01-23T11:19:46.491Z,80.97
2019-01-23T11:22:15.866Z,83.80
2019-01-23T11:24:45.238Z,81.63
2019-01-23T11:27:14.586Z,78.30
2019-01-23T11:29:43.947Z,78.10
2019-01-23T11:32:13.359Z,72.37
2019-01-23T11:34:42.760Z,79.80
2019-01-23T11:37:12.184Z,81.13
2019-01-23T11:39:41.564Z,77.27
2019-01-23T11:42:10.942Z,73.40
2019-01-23T11:44:40.364Z,71.53
2019-01-23T11:47:09.771Z,68.87
2019-01-23T11:49:39.200Z,67.23
2019-01-23T11:52:08.584Z,66.83
2019-01-23T11:54:37.983Z,66.87
2019-01-23T11:57:07.397Z,66.07
2019-01-23T11:59:36.770Z,67.83
2019-01-23T12:02:06.182Z,70.67
2019-01-23T12:04:35.574Z,71.53
2019-01-23T12:07:05.098Z,89.30
2019-01-23T12:09:34.519Z,69.30
2019-01-23T12:12:03.950Z,71.27
2019-01-23T12:14:33.385Z,72.30
2019-01-23T12:17:02.783Z,66.00
2019-01-23T12:19:32.463Z,66.60
2019-01-23T12:22:01.836Z,66.27
2019-01-23T12:24:31.227Z,68.90
2019-01-23T12:27:00.644Z,76.30
2019-01-23T12:29:30.208Z,64.87
2019-01-23T12:31:59.598Z,68.37
2019-01-23T12:34:28.969Z,65.37
2019-01-23T12:36:58.383Z,60.57
2019-01-23T12:39:27.764Z,55.60
2019-01-23T12:41:57.206Z,72.90
2019-01-23T12:44:26.567Z,66.47
2019-01-23T12:46:55.997Z,58.53
2019-01-23T12:49:25.368Z,67.93
2019-01-23T12:51:54.772Z,74.43
2019-01-23T12:54:24.173Z,73.37
2019-01-23T12:56:53.567Z,78.50
2019-01-23T12:59:22.983Z,69.87
2019-01-23T13:01:52.359Z,70.17
2019-01-23T13:04:21.851Z,73.20
2019-01-23T13:06:51.264Z,75.67
2019-01-23T13:09:20.700Z,68.03
2019-01-23T13:11:50.100Z,72.00
2019-01-23T13:14:19.468Z,76.23
2019-01-23T13:16:48.875Z,75.17
2019-01-23T13:19:18.263Z,79.77
2019-01-23T13:21:47.695Z,70.33
2019-01-23T13:24:17.124Z,72.93
2019-01-23T13:26:46.507Z,73.47
2019-01-23T13:29:15.912Z,71.63
2019-01-23T13:31:49.287Z,67.27
2019-01-23T13:34:16.727Z,76.17
2019-01-23T13:36:46.118Z,70.63
2019-01-23T13:39:18.264Z,71.70
2019-01-23T13:41:47.674Z,62.23
2019-01-23T13:44:18.816Z,65.63
2019-01-23T13:46:50.199Z,74.17
2019-01-23T13:49:21.483Z,72.43
2019-01-23T13:51:53.117Z,67.33
2019-01-23T13:54:24.152Z,73.83
2019-01-23T13:56:55.964Z,69.50
2019-01-23T13:59:25.387Z,70.10
2019-01-23T14:01:56.443Z,74.03
2019-01-23T14:04:25.976Z,65.43
2019-01-23T14:06:55.411Z,70.20
2019-01-23T14:09:24.775Z,65.50
2019-01-23T14:11:54.287Z,67.73
2019-01-23T14:14:23.696Z,73.07
2019-01-23T14:16:53.079Z,60.87
2019-01-23T14:19:22.514Z,63.87
2019-01-23T14:21:51.892Z,63.37
2019-01-23T14:24:21.277Z,64.43
2019-01-23T14:26:50.692Z,70.40
2019-01-23T14:29:20.051Z,58.70
2019-01-23T14:31:49.453Z,60.87
2019-01-23T14:34:18.836Z,64.90
2019-01-23T14:36:48.239Z,64.53
2019-01-23T14:39:17.628Z,60.90
2019-01-23T14:41:46.999Z,63.87
2019-01-23T14:44:16.396Z,74.13
2019-01-23T14:46:45.770Z,66.57
2019-01-23T14:49:15.281Z,70.00
2019-01-23T14:51:44.662Z,66.50
2019-01-23T14:54:14.043Z,64.77
2019-01-23T14:56:43.445Z,60.80
2019-01-23T14:59:12.843Z,61.10
2019-01-23T15:01:42.243Z,63.83
2019-01-23T15:04:11.635Z,64.47
2019-01-23T15:06:41.071Z,59.67
2019-01-23T15:09:10.471Z,61.23
2019-01-23T15:11:39.805Z,63.47
2019-01-23T15:14:09.222Z,58.87
2019-01-23T15:16:38.599Z,65.53
2019-01-23T15:19:07.992Z,56.50
2019-01-23T15:21:37.390Z,66.83
2019-01-23T15:24:06.795Z,57.17
2019-01-23T15:26:36.099Z,59.80
2019-01-23T15:29:05.507Z,61.77
2019-01-23T15:31:34.879Z,53.43
2019-01-23T15:34:04.827Z,56.60
2019-01-23T15:36:34.217Z,59.53
2019-01-23T15:39:05.528Z,56.10
2019-01-23T15:41:34.899Z,58.67
2019-01-23T15:44:04.576Z,62.80
2019-01-23T15:46:33.988Z,56.33
2019-01-23T15:49:03.368Z,50.80
2019-01-23T15:51:32.807Z,58.27
2019-01-23T15:54:02.187Z,61.07
2019-01-23T15:56:31.687Z,54.33
2019-01-23T15:59:01.079Z,61.33
2019-01-23T16:01:30.467Z,52.13
2019-01-23T16:03:59.899Z,53.00
2019-01-23T16:06:29.882Z,51.10
2019-01-23T16:08:59.263Z,54.77
2019-01-23T16:11:28.677Z,59.90
2019-01-23T16:13:58.117Z,55.37
2019-01-23T16:16:27.551Z,58.77
2019-01-23T16:18:56.927Z,58.17
2019-01-23T16:21:26.339Z,57.03
2019-01-23T16:23:55.729Z,60.53
2019-01-23T16:26:25.156Z,52.57
2019-01-23T16:28:54.535Z,43.87
2019-01-23T16:31:23.945Z,48.70
2019-01-23T16:33:53.346Z,56.83
2019-01-23T16:36:23.391Z,56.53
2019-01-23T16:38:52.792Z,51.30
2019-01-23T16:41:22.168Z,51.03
2019-01-23T16:43:51.576Z,57.17
2019-01-23T16:46:20.970Z,82.43
2019-01-23T16:48:50.460Z,56.30
2019-01-23T16:51:19.863Z,47.47
2019-01-23T16:53:49.256Z,53.87
2019-01-23T16:56:18.776Z,53.57
2019-01-23T16:58:48.179Z,52.30
2019-01-23T17:01:17.936Z,47.73
2019-01-23T17:03:47.425Z,54.73
2019-01-23T17:06:16.936Z,46.97
2019-01-23T17:08:46.314Z,52.10
2019-01-23T17:11:16.027Z,58.43
2019-01-23T17:13:46.200Z,55.83
2019-01-23T17:16:15.579Z,61.90
2019-01-23T17:18:45.264Z,57.87
2019-01-23T17:21:14.641Z,66.00
2019-01-23T17:23:44.080Z,64.73
2019-01-23T17:26:13.471Z,64.90
2019-01-23T17:28:42.860Z,63.40
2019-01-23T17:31:12.638Z,66.00
2019-01-23T17:33:42.007Z,67.00
2019-01-23T17:36:11.427Z,72.10
2019-01-23T17:38:40.820Z,63.77
2019-01-23T17:41:10.234Z,64.57
2019-01-23T17:43:39.911Z,66.93
2019-01-23T17:46:09.362Z,62.63
2019-01-23T17:48:38.739Z,64.37
2019-01-23T17:51:08.155Z,57.20
2019-01-23T17:53:37.555Z,67.77
2019-01-23T17:56:07.196Z,72.23
2019-01-23T17:58:36.591Z,68.47
2019-01-23T18:01:06.079Z,69.63
2019-01-23T18:03:35.495Z,71.30
2019-01-23T18:06:05.011Z,69.43
2019-01-23T18:08:34.423Z,70.57
2019-01-23T18:11:03.827Z,93.73
2019-01-23T18:13:33.272Z,70.93
2019-01-23T18:16:11.463Z,76.57
2019-01-23T18:18:41.251Z,76.77
2019-01-23T18:21:10.911Z,71.07
2019-01-23T18:23:40.659Z,84.63
2019-01-23T18:26:10.052Z,76.27
2019-01-23T18:28:39.438Z,107.33
2019-01-23T18:31:25.696Z,65.70
2019-01-23T18:34:21.838Z,70.13
2019-01-23T18:36:59.727Z,66.97
2019-01-23T18:40:12.984Z,70.97
2019-01-23T18:43:28.275Z,76.00
2019-01-23T18:46:49.772Z,71.57
2019-01-23T18:49:45.168Z,66.97
2019-01-23T18:52:15.257Z,68.80
2019-01-23T18:54:44.780Z,69.83
2019-01-23T18:57:17.600Z,70.43
2019-01-23T18:59:47.007Z,64.50
2019-01-23T19:02:16.408Z,70.33
2019-01-23T19:04:45.787Z,76.77
2019-01-23T19:07:15.316Z,66.73
2019-01-23T19:09:44.697Z,67.97
2019-01-23T19:12:14.107Z,80.97
2019-01-23T19:14:43.591Z,65.73
2019-01-23T19:17:12.991Z,67.90
2019-01-23T19:19:42.391Z,74.20
2019-01-23T19:22:11.788Z,63.20
2019-01-23T19:24:41.436Z,66.50
2019-01-23T19:27:10.835Z,68.37
2019-01-23T19:29:40.259Z,71.07
2019-01-23T19:32:09.773Z,63.53
2019-01-23T19:34:39.202Z,65.87
2019-01-23T19:37:08.531Z,65.50
2019-01-23T19:39:37.937Z,77.27
2019-01-23T19:42:07.324Z,67.90
2019-01-23T19:44:36.747Z,69.93
2019-01-23T19:47:06.128Z,72.10
2019-01-23T19:49:35.607Z,64.93
2019-01-23T19:52:04.979Z,64.33
2019-01-23T19:54:34.381Z,65.80
2019-01-23T19:57:03.809Z,65.33
2019-01-23T19:59:33.200Z,61.20
2019-01-23T20:02:02.980Z,67.73
2019-01-23T20:04:32.368Z,72.07
2019-01-23T20:07:01.759Z,64.70
2019-01-23T20:09:31.154Z,64.63
2019-01-23T20:12:00.560Z,79.13
2019-01-23T20:14:29.991Z,75.13
2019-01-23T20:16:59.816Z,68.40
2019-01-23T20:19:29.185Z,70.70
2019-01-23T20:21:58.563Z,81.23
2019-01-23T20:24:27.995Z,72.37
2019-01-23T20:26:57.367Z,73.27
2019-01-23T20:29:26.785Z,74.87
2019-01-23T20:31:56.194Z,78.50
2019-01-23T20:34:25.607Z,74.33
2019-01-23T20:36:54.991Z,77.97
2019-01-23T20:39:24.403Z,73.40
2019-01-23T20:41:53.787Z,67.37
2019-01-23T20:44:23.211Z,75.57
2019-01-23T20:46:52.588Z,73.03
2019-01-23T20:49:21.975Z,77.47
2019-01-23T20:51:51.371Z,75.50
2019-01-23T20:54:21.727Z,69.83
2019-01-23T20:56:51.154Z,73.20
2019-01-23T20:59:20.551Z,72.03
2019-01-23T21:01:49.956Z,70.20
2019-01-23T21:04:19.326Z,68.30
2019-01-23T21:06:48.670Z,74.87
2019-01-23T21:09:18.072Z,65.37
2019-01-23T21:11:47.578Z,78.37
2019-01-23T21:14:16.945Z,69.27
2019-01-23T21:16:46.356Z,69.40
2019-01-23T21:19:15.771Z,69.67
2019-01-23T21:21:45.155Z,79.17
2019-01-23T21:24:14.495Z,72.30
2019-01-23T21:26:43.883Z,74.50
2019-01-23T21:29:13.387Z,74.83
2019-01-23T21:31:42.775Z,70.17
2019-01-23T21:34:12.179Z,67.83
2019-01-23T21:36:41.592Z,75.67
2019-01-23T21:39:11.387Z,77.10
2019-01-23T21:41:40.787Z,73.47
2019-01-23T21:44:10.175Z,83.03
2019-01-23T21:46:39.577Z,76.00
2019-01-23T21:49:08.976Z,69.63
2019-01-23T21:51:38.358Z,73.40
2019-01-23T21:54:07.701Z,69.33
2019-01-23T21:56:37.095Z,72.67
2019-01-23T21:59:06.519Z,73.37
2019-01-23T22:01:35.912Z,73.93
2019-01-23T22:04:05.420Z,70.80
2019-01-23T22:06:34.847Z,68.13
2019-01-23T22:09:05.738Z,71.80
2019-01-23T22:11:35.136Z,76.00
2019-01-23T22:14:04.721Z,75.13
2019-01-23T22:16:34.200Z,81.23
2019-01-23T22:19:03.607Z,75.90
2019-01-23T22:21:33.131Z,70.17
2019-01-23T22:24:02.507Z,75.13
2019-01-23T22:26:31.876Z,71.87
2019-01-23T22:29:01.283Z,72.40
2019-01-23T22:31:30.658Z,77.07
2019-01-23T22:34:00.062Z,76.20
2019-01-23T22:36:29.458Z,74.93
2019-01-23T22:38:59.199Z,74.50
2019-01-23T22:41:28.590Z,77.20
2019-01-23T22:43:57.959Z,76.43
2019-01-23T22:46:27.347Z,64.97
2019-01-23T22:48:56.723Z,72.10
2019-01-23T22:51:26.157Z,78.53
2019-01-23T22:53:55.537Z,67.03
2019-01-23T22:56:24.946Z,73.60
2019-01-23T22:58:54.319Z,67.83
2019-01-23T23:01:28.628Z,69.60
2019-01-23T23:04:03.197Z,67.63
2019-01-23T23:06:29.551Z,74.83
2019-01-23T23:08:58.955Z,67.40
2019-01-23T23:11:28.324Z,70.33
2019-01-23T23:13:57.728Z,73.17
2019-01-23T23:16:27.159Z,75.10
2019-01-23T23:18:56.667Z,72.57
2019-01-23T23:21:26.068Z,70.43
2019-01-23T23:23:55.443Z,68.90
2019-01-23T23:26:24.866Z,72.77
2019-01-23T23:28:54.260Z,73.10
2019-01-23T23:31:23.678Z,72.27
2019-01-23T23:33:53.071Z,70.93
2019-01-23T23:36:22.434Z,68.10
2019-01-23T23:38:51.820Z,78.50
2019-01-23T23:41:21.205Z,81.90
2019-01-23T23:43:50.620Z,71.90
2019-01-23T23:46:19.991Z,69.63
2019-01-23T23:48:49.402Z,68.67
2019-01-23T23:51:18.783Z,68.60
2019-01-23T23:53:48.183Z,72.47
2019-01-23T23:56:17.576Z,72.80
2019-01-23T23:58:46.984Z,67.40
